sensor_id;sensor_type;location;lat;lon;timestamp;pressure;altitude;pressure_sealevel;temperature;humidity
3294;BME280;1659;51.470;6.770;2022-08-19T00:00:16;101099.50;;;19.74;67.73
3294;BME280;1659;51.470;6.770;2022-08-19T00:02:44;101096.09;;;19.70;67.71
3294;BME280;1659;51.470;6.770;2022-08-19T00:05:13;101101.59;;;19.67;67.97
3294;BME280;1659;51.470;6.770;2022-08-19T00:07:41;101105.31;;;19.65;68.06
3294;BME280;1659;51.470;6.770;2022-08-19T00:10:10;101109.97;;;19.61;68.10
3294;BME280;1659;51.470;6.770;2022-08-19T00:12:37;101099.41;;;19.58;68.27
3294;BME280;1659;51.470;6.770;2022-08-19T00:15:05;101104.91;;;19.55;68.27
3294;BME280;1659;51.470;6.770;2022-08-19T00:17:32;101109.50;;;19.53;68.30
3294;BME280;1659;51.470;6.770;2022-08-19T00:19:58;101109.56;;;19.51;68.57
3294;BME280;1659;51.470;6.770;2022-08-19T00:22:25;101119.44;;;19.51;68.66
3294;BME280;1659;51.470;6.770;2022-08-19T00:24:53;101109.72;;;19.48;68.73
3294;BME280;1659;51.470;6.770;2022-08-19T00:27:21;101112.50;;;19.47;68.83
3294;BME280;1659;51.470;6.770;2022-08-19T00:29:48;101109.00;;;19.44;68.84
3294;BME280;1659;51.470;6.770;2022-08-19T00:32:14;101107.34;;;19.42;68.97
3294;BME280;1659;51.470;6.770;2022-08-19T00:34:41;101107.44;;;19.40;69.09
3294;BME280;1659;51.470;6.770;2022-08-19T00:37:07;101103.97;;;19.38;69.17
3294;BME280;1659;51.470;6.770;2022-08-19T00:39:34;101101.34;;;19.37;69.22
3294;BME280;1659;51.470;6.770;2022-08-19T00:42:01;101094.25;;;19.36;69.19
3294;BME280;1659;51.470;6.770;2022-08-19T00:44:29;101091.66;;;19.34;69.40
3294;BME280;1659;51.470;6.770;2022-08-19T00:46:58;101090.84;;;19.32;69.38
3294;BME280;1659;51.470;6.770;2022-08-19T00:49:29;101090.06;;;19.30;69.67
3294;BME280;1659;51.470;6.770;2022-08-19T00:52:00;101091.19;;;19.26;69.72
3294;BME280;1659;51.470;6.770;2022-08-19T00:54:28;101099.28;;;19.24;69.80
3294;BME280;1659;51.470;6.770;2022-08-19T00:56:57;101097.63;;;19.22;69.90
3294;BME280;1659;51.470;6.770;2022-08-19T00:59:24;101103.16;;;19.19;69.92
3294;BME280;1659;51.470;6.770;2022-08-19T01:01:53;101097.94;;;19.16;70.09
3294;BME280;1659;51.470;6.770;2022-08-19T01:04:20;101096.25;;;19.13;70.25
3294;BME280;1659;51.470;6.770;2022-08-19T01:06:46;101103.44;;;19.13;70.34
3294;BME280;1659;51.470;6.770;2022-08-19T01:09:16;101099.03;;;19.12;70.41
3294;BME280;1659;51.470;6.770;2022-08-19T01:11:44;101093.03;;;19.07;70.57
3294;BME280;1659;51.470;6.770;2022-08-19T01:14:12;101093.97;;;19.05;70.65
3294;BME280;1659;51.470;6.770;2022-08-19T01:16:40;101091.38;;;19.04;70.73
3294;BME280;1659;51.470;6.770;2022-08-19T01:19:17;101095.06;;;19.01;70.90
3294;BME280;1659;51.470;6.770;2022-08-19T01:21:50;101101.38;;;19.00;70.98
3294;BME280;1659;51.470;6.770;2022-08-19T01:24:19;101101.50;;;18.97;70.96
3294;BME280;1659;51.470;6.770;2022-08-19T01:26:47;101094.50;;;18.95;70.88
3294;BME280;1659;51.470;6.770;2022-08-19T01:29:14;101096.47;;;18.91;70.92
3294;BME280;1659;51.470;6.770;2022-08-19T01:31:41;101096.47;;;18.91;71.24
3294;BME280;1659;51.470;6.770;2022-08-19T01:34:07;101092.09;;;18.89;71.33
3294;BME280;1659;51.470;6.770;2022-08-19T01:36:36;101086.81;;;18.87;71.41
3294;BME280;1659;51.470;6.770;2022-08-19T01:39:07;101091.38;;;18.85;71.45
3294;BME280;1659;51.470;6.770;2022-08-19T01:41:36;101092.34;;;18.84;71.50
3294;BME280;1659;51.470;6.770;2022-08-19T01:44:03;101087.94;;;18.83;71.58
3294;BME280;1659;51.470;6.770;2022-08-19T01:46:31;101094.28;;;18.80;71.56
3294;BME280;1659;51.470;6.770;2022-08-19T01:48:58;101105.97;;;18.78;71.77
3294;BME280;1659;51.470;6.770;2022-08-19T01:51:25;101098.97;;;18.75;71.85
3294;BME280;1659;51.470;6.770;2022-08-19T01:53:52;101099.06;;;18.74;71.98
3294;BME280;1659;51.470;6.770;2022-08-19T01:56:20;101094.69;;;18.71;71.92
3294;BME280;1659;51.470;6.770;2022-08-19T01:58:51;101090.38;;;18.68;72.16
3294;BME280;1659;51.470;6.770;2022-08-19T02:01:19;101095.78;;;18.67;72.16
3294;BME280;1659;51.470;6.770;2022-08-19T02:03:45;101094.03;;;18.66;72.30
3294;BME280;1659;51.470;6.770;2022-08-19T02:06:12;101100.44;;;18.63;72.32
3294;BME280;1659;51.470;6.770;2022-08-19T02:08:42;101091.59;;;18.61;72.48
3294;BME280;1659;51.470;6.770;2022-08-19T02:11:19;101089.84;;;18.60;72.63
3294;BME280;1659;51.470;6.770;2022-08-19T02:13:48;101087.25;;;18.59;72.45
3294;BME280;1659;51.470;6.770;2022-08-19T02:16:16;101094.50;;;18.57;72.52
3294;BME280;1659;51.470;6.770;2022-08-19T02:18:42;101092.78;;;18.56;72.65
3294;BME280;1659;51.470;6.770;2022-08-19T02:21:09;101093.69;;;18.55;72.67
3294;BME280;1659;51.470;6.770;2022-08-19T02:23:36;101093.75;;;18.53;72.77
3294;BME280;1659;51.470;6.770;2022-08-19T02:26:02;101085.81;;;18.52;72.87
3294;BME280;1659;51.470;6.770;2022-08-19T02:28:29;101095.66;;;18.51;72.74
3294;BME280;1659;51.470;6.770;2022-08-19T02:30:57;101104.59;;;18.50;73.04
3294;BME280;1659;51.470;6.770;2022-08-19T02:33:25;101102.88;;;18.49;73.16
3294;BME280;1659;51.470;6.770;2022-08-19T02:35:52;101110.03;;;18.48;73.04
3294;BME280;1659;51.470;6.770;2022-08-19T02:38:19;101107.50;;;18.45;73.25
3294;BME280;1659;51.470;6.770;2022-08-19T02:40:50;101113.78;;;18.44;73.32
3294;BME280;1659;51.470;6.770;2022-08-19T02:43:18;101103.94;;;18.45;73.38
3294;BME280;1659;51.470;6.770;2022-08-19T02:45:46;101102.22;;;18.44;73.38
3294;BME280;1659;51.470;6.770;2022-08-19T02:48:16;101103.28;;;18.40;73.64
3294;BME280;1659;51.470;6.770;2022-08-19T02:50:44;101106.94;;;18.39;73.57
3294;BME280;1659;51.470;6.770;2022-08-19T02:53:11;101106.19;;;18.35;73.73
3294;BME280;1659;51.470;6.770;2022-08-19T02:55:43;101110.66;;;18.35;73.77
3294;BME280;1659;51.470;6.770;2022-08-19T02:58:10;101100.97;;;18.32;73.81
3294;BME280;1659;51.470;6.770;2022-08-19T03:00:41;101108.16;;;18.32;73.81
3294;BME280;1659;51.470;6.770;2022-08-19T03:03:08;101113.50;;;18.32;73.81
3294;BME280;1659;51.470;6.770;2022-08-19T03:05:36;101108.16;;;18.32;73.84
3294;BME280;1659;51.470;6.770;2022-08-19T03:08:03;101108.22;;;18.30;73.97
3294;BME280;1659;51.470;6.770;2022-08-19T03:10:31;101106.47;;;18.29;74.06
3294;BME280;1659;51.470;6.770;2022-08-19T03:12:57;101113.63;;;18.28;74.16
3294;BME280;1659;51.470;6.770;2022-08-19T03:15:24;101107.50;;;18.26;74.19
3294;BME280;1659;51.470;6.770;2022-08-19T03:17:51;101105.75;;;18.25;74.21
3294;BME280;1659;51.470;6.770;2022-08-19T03:20:18;101103.13;;;18.24;74.22
3294;BME280;1659;51.470;6.770;2022-08-19T03:22:46;101095.16;;;18.22;74.38
3294;BME280;1659;51.470;6.770;2022-08-19T03:25:12;101098.81;;;18.21;74.49
3294;BME280;1659;51.470;6.770;2022-08-19T03:27:39;101098.81;;;18.21;74.46
3294;BME280;1659;51.470;6.770;2022-08-19T03:30:06;101094.31;;;18.22;74.42
3294;BME280;1659;51.470;6.770;2022-08-19T03:32:34;101103.19;;;18.22;74.49
3294;BME280;1659;51.470;6.770;2022-08-19T03:35:00;101107.69;;;18.22;74.69
3294;BME280;1659;51.470;6.770;2022-08-19T03:37:27;101104.16;;;18.21;74.57
3294;BME280;1659;51.470;6.770;2022-08-19T03:39:56;101102.41;;;18.20;74.73
3294;BME280;1659;51.470;6.770;2022-08-19T03:42:22;101104.22;;;18.20;74.81
3294;BME280;1659;51.470;6.770;2022-08-19T03:44:50;101103.34;;;18.19;74.82
3294;BME280;1659;51.470;6.770;2022-08-19T03:47:16;101111.38;;;18.19;74.84
3294;BME280;1659;51.470;6.770;2022-08-19T03:49:43;101110.56;;;18.17;74.90
3294;BME280;1659;51.470;6.770;2022-08-19T03:52:10;101109.69;;;18.17;74.95
3294;BME280;1659;51.470;6.770;2022-08-19T03:54:37;101107.09;;;18.15;74.93
3294;BME280;1659;51.470;6.770;2022-08-19T03:57:05;101111.63;;;18.13;75.09
3294;BME280;1659;51.470;6.770;2022-08-19T03:59:35;101104.47;;;18.14;75.19
3294;BME280;1659;51.470;6.770;2022-08-19T04:02:06;101097.47;;;18.11;75.14
3294;BME280;1659;51.470;6.770;2022-08-19T04:04:33;101098.47;;;18.08;75.27
3294;BME280;1659;51.470;6.770;2022-08-19T04:07:00;101103.03;;;18.06;75.20
3294;BME280;1659;51.470;6.770;2022-08-19T04:09:27;101103.09;;;18.05;75.43
3294;BME280;1659;51.470;6.770;2022-08-19T04:11:56;101104.03;;;18.04;75.44
3294;BME280;1659;51.470;6.770;2022-08-19T04:14:29;101103.09;;;18.05;75.54
3294;BME280;1659;51.470;6.770;2022-08-19T04:16:57;101104.97;;;18.03;75.52
3294;BME280;1659;51.470;6.770;2022-08-19T04:19:24;101107.69;;;18.01;75.79
3294;BME280;1659;51.470;6.770;2022-08-19T04:21:52;101095.28;;;18.00;75.66
3294;BME280;1659;51.470;6.770;2022-08-19T04:24:19;101101.50;;;18.01;75.76
3294;BME280;1659;51.470;6.770;2022-08-19T04:26:47;101098.75;;;18.02;75.83
3294;BME280;1659;51.470;6.770;2022-08-19T04:29:15;101101.44;;;18.02;75.99
3294;BME280;1659;51.470;6.770;2022-08-19T04:31:45;101106.66;;;18.05;75.94
3294;BME280;1659;51.470;6.770;2022-08-19T04:34:14;101101.97;;;18.10;75.73
3294;BME280;1659;51.470;6.770;2022-08-19T04:36:42;101089.38;;;18.13;75.82
3294;BME280;1659;51.470;6.770;2022-08-19T04:39:13;101098.19;;;18.15;75.97
3294;BME280;1659;51.470;6.770;2022-08-19T04:41:40;101102.41;;;18.20;75.77
3294;BME280;1659;51.470;6.770;2022-08-19T04:44:25;101111.88;;;18.27;75.76
3294;BME280;1659;51.470;6.770;2022-08-19T04:46:53;101118.91;;;18.30;75.78
3294;BME280;1659;51.470;6.770;2022-08-19T04:49:22;101119.72;;;18.32;75.52
3294;BME280;1659;51.470;6.770;2022-08-19T04:51:50;101119.66;;;18.34;75.88
3294;BME280;1659;51.470;6.770;2022-08-19T04:54:22;101123.03;;;18.37;75.94
3294;BME280;1659;51.470;6.770;2022-08-19T04:56:51;101122.97;;;18.39;75.88
3294;BME280;1659;51.470;6.770;2022-08-19T04:59:18;101123.69;;;18.42;75.98
3294;BME280;1659;51.470;6.770;2022-08-19T05:01:46;101125.22;;;18.48;76.02
3294;BME280;1659;51.470;6.770;2022-08-19T05:04:17;101127.75;;;18.51;75.98
3294;BME280;1659;51.470;6.770;2022-08-19T05:06:45;101135.66;;;18.54;75.93
3294;BME280;1659;51.470;6.770;2022-08-19T05:09:12;101136.38;;;18.58;75.95
3294;BME280;1659;51.470;6.770;2022-08-19T05:11:39;101140.66;;;18.62;75.83
3294;BME280;1659;51.470;6.770;2022-08-19T05:14:06;101152.00;;;18.67;75.97
3294;BME280;1659;51.470;6.770;2022-08-19T05:16:33;101153.53;;;18.73;75.89
3294;BME280;1659;51.470;6.770;2022-08-19T05:19:00;101150.72;;;18.76;75.85
3294;BME280;1659;51.470;6.770;2022-08-19T05:21:46;101158.53;;;18.80;75.98
3294;BME280;1659;51.470;6.770;2022-08-19T05:24:30;101154.72;;;18.86;75.85
3294;BME280;1659;51.470;6.770;2022-08-19T05:27:00;101160.81;;;18.90;76.09
3294;BME280;1659;51.470;6.770;2022-08-19T05:29:28;101158.78;;;18.95;76.26
3294;BME280;1659;51.470;6.770;2022-08-19T05:31:56;101158.41;;;19.02;76.23
3294;BME280;1659;51.470;6.770;2022-08-19T05:34:24;101157.09;;;19.11;76.02
3294;BME280;1659;51.470;6.770;2022-08-19T05:36:56;101158.44;;;19.20;76.07
3294;BME280;1659;51.470;6.770;2022-08-19T05:39:24;101158.88;;;19.30;76.11
3294;BME280;1659;51.470;6.770;2022-08-19T05:41:53;101155.75;;;19.39;76.11
3294;BME280;1659;51.470;6.770;2022-08-19T05:44:23;101160.56;;;19.50;76.20
3294;BME280;1659;51.470;6.770;2022-08-19T05:46:50;101152.88;;;19.61;75.99
3294;BME280;1659;51.470;6.770;2022-08-19T05:49:20;101156.81;;;19.71;75.92
3294;BME280;1659;51.470;6.770;2022-08-19T05:51:48;101167.97;;;19.81;75.90
3294;BME280;1659;51.470;6.770;2022-08-19T05:54:16;101163.78;;;19.93;75.93
3294;BME280;1659;51.470;6.770;2022-08-19T05:56:43;101167.41;;;20.09;75.78
3294;BME280;1659;51.470;6.770;2022-08-19T05:59:13;101167.56;;;20.24;75.69
3294;BME280;1659;51.470;6.770;2022-08-19T06:01:42;101166.00;;;20.35;75.66
3294;BME280;1659;51.470;6.770;2022-08-19T06:04:08;101171.78;;;20.45;75.77
3294;BME280;1659;51.470;6.770;2022-08-19T06:06:35;101164.94;;;20.73;75.28
3294;BME280;1659;51.470;6.770;2022-08-19T06:09:03;101155.25;;;21.34;73.66
3294;BME280;1659;51.470;6.770;2022-08-19T06:11:37;101160.94;;;21.90;72.08
3294;BME280;1659;51.470;6.770;2022-08-19T06:14:06;101161.63;;;22.38;70.79
3294;BME280;1659;51.470;6.770;2022-08-19T06:16:34;101159.97;;;22.79;69.70
3294;BME280;1659;51.470;6.770;2022-08-19T06:19:03;101150.38;;;23.16;68.88
3294;BME280;1659;51.470;6.770;2022-08-19T06:21:31;101144.22;;;23.69;67.86
3294;BME280;1659;51.470;6.770;2022-08-19T06:23:58;101147.94;;;23.93;67.09
3294;BME280;1659;51.470;6.770;2022-08-19T06:26:25;101141.47;;;24.22;66.30
3294;BME280;1659;51.470;6.770;2022-08-19T06:28:54;101142.38;;;24.61;65.33
3294;BME280;1659;51.470;6.770;2022-08-19T06:31:23;101145.41;;;24.93;64.77
3294;BME280;1659;51.470;6.770;2022-08-19T06:33:50;101149.59;;;25.10;64.27
3294;BME280;1659;51.470;6.770;2022-08-19T06:36:19;101143.75;;;25.40;63.66
3294;BME280;1659;51.470;6.770;2022-08-19T06:38:46;101141.03;;;25.65;63.19
3294;BME280;1659;51.470;6.770;2022-08-19T06:41:12;101139.56;;;25.96;62.50
3294;BME280;1659;51.470;6.770;2022-08-19T06:43:39;101132.84;;;26.35;61.71
3294;BME280;1659;51.470;6.770;2022-08-19T06:46:12;101139.00;;;26.60;61.31
3294;BME280;1659;51.470;6.770;2022-08-19T06:48:39;101146.13;;;26.95;60.49
3294;BME280;1659;51.470;6.770;2022-08-19T06:51:06;101146.69;;;27.21;59.94
3294;BME280;1659;51.470;6.770;2022-08-19T06:53:33;101148.03;;;27.38;59.59
3294;BME280;1659;51.470;6.770;2022-08-19T06:56:00;101149.88;;;27.26;59.52
3294;BME280;1659;51.470;6.770;2022-08-19T06:58:27;101156.50;;;26.90;60.21
3294;BME280;1659;51.470;6.770;2022-08-19T07:00:57;101155.25;;;26.49;60.91
3294;BME280;1659;51.470;6.770;2022-08-19T07:03:28;101161.88;;;26.11;61.35
3294;BME280;1659;51.470;6.770;2022-08-19T07:05:55;101154.22;;;25.69;62.33
3294;BME280;1659;51.470;6.770;2022-08-19T07:08:22;101154.97;;;25.82;61.71
3294;BME280;1659;51.470;6.770;2022-08-19T07:10:51;101161.41;;;26.28;60.49
3294;BME280;1659;51.470;6.770;2022-08-19T07:13:18;101165.63;;;26.78;59.42
3294;BME280;1659;51.470;6.770;2022-08-19T07:15:48;101167.38;;;27.22;58.17
3294;BME280;1659;51.470;6.770;2022-08-19T07:18:24;101159.78;;;27.60;57.14
3294;BME280;1659;51.470;6.770;2022-08-19T07:21:02;101169.41;;;27.96;56.30
3294;BME280;1659;51.470;6.770;2022-08-19T07:23:29;101162.94;;;28.18;56.20
3294;BME280;1659;51.470;6.770;2022-08-19T07:25:55;101169.00;;;28.53;55.41
3294;BME280;1659;51.470;6.770;2022-08-19T07:28:22;101178.88;;;28.85;54.52
3294;BME280;1659;51.470;6.770;2022-08-19T07:30:49;101180.84;;;29.13;53.88
3294;BME280;1659;51.470;6.770;2022-08-19T07:33:16;101179.31;;;29.30;53.52
3294;BME280;1659;51.470;6.770;2022-08-19T07:35:43;101182.75;;;29.32;53.20
3294;BME280;1659;51.470;6.770;2022-08-19T07:38:11;101182.06;;;29.40;53.09
3294;BME280;1659;51.470;6.770;2022-08-19T07:40:37;101191.47;;;29.26;53.31
3294;BME280;1659;51.470;6.770;2022-08-19T07:43:07;101182.22;;;29.48;52.82
3294;BME280;1659;51.470;6.770;2022-08-19T07:45:42;101190.38;;;29.68;52.01
3294;BME280;1659;51.470;6.770;2022-08-19T07:48:12;101193.09;;;30.07;51.37
3294;BME280;1659;51.470;6.770;2022-08-19T07:50:39;101185.44;;;30.49;50.22
3294;BME280;1659;51.470;6.770;2022-08-19T07:53:06;101191.00;;;30.85;49.40
3294;BME280;1659;51.470;6.770;2022-08-19T07:55:34;101199.44;;;31.02;48.66
3294;BME280;1659;51.470;6.770;2022-08-19T07:58:00;101193.78;;;31.31;48.22
3294;BME280;1659;51.470;6.770;2022-08-19T08:00:27;101206.13;;;31.63;47.71
3294;BME280;1659;51.470;6.770;2022-08-19T08:02:53;101206.13;;;31.35;47.67
3294;BME280;1659;51.470;6.770;2022-08-19T08:05:20;101211.03;;;30.66;48.62
3294;BME280;1659;51.470;6.770;2022-08-19T08:08:04;101212.31;;;30.35;49.63
3294;BME280;1659;51.470;6.770;2022-08-19T08:10:50;101225.72;;;30.56;48.57
3294;BME280;1659;51.470;6.770;2022-08-19T08:13:16;101221.16;;;30.84;47.92
3294;BME280;1659;51.470;6.770;2022-08-19T08:15:43;101218.22;;;31.05;47.45
3294;BME280;1659;51.470;6.770;2022-08-19T08:18:10;101220.88;;;31.24;46.89
3294;BME280;1659;51.470;6.770;2022-08-19T08:20:38;101215.47;;;31.60;45.91
3294;BME280;1659;51.470;6.770;2022-08-19T08:23:04;101213.03;;;31.57;45.98
3294;BME280;1659;51.470;6.770;2022-08-19T08:25:52;101223.22;;;31.37;46.11
3294;BME280;1659;51.470;6.770;2022-08-19T08:28:20;101219.44;;;30.93;46.97
3294;BME280;1659;51.470;6.770;2022-08-19T08:30:47;101232.22;;;30.45;47.69
3294;BME280;1659;51.470;6.770;2022-08-19T08:33:18;101239.28;;;30.08;48.06
3294;BME280;1659;51.470;6.770;2022-08-19T08:35:44;101242.41;;;29.55;48.59
3294;BME280;1659;51.470;6.770;2022-08-19T08:38:12;101243.97;;;29.07;49.18
3294;BME280;1659;51.470;6.770;2022-08-19T08:40:43;101247.84;;;28.74;49.69
3294;BME280;1659;51.470;6.770;2022-08-19T08:43:21;101242.66;;;28.50;50.28
3294;BME280;1659;51.470;6.770;2022-08-19T08:45:53;101240.91;;;28.60;49.62
3294;BME280;1659;51.470;6.770;2022-08-19T08:48:30;101238.81;;;28.52;49.50
3294;BME280;1659;51.470;6.770;2022-08-19T08:51:03;101238.75;;;28.42;49.49
3294;BME280;1659;51.470;6.770;2022-08-19T08:53:31;101235.13;;;28.32;49.40
3294;BME280;1659;51.470;6.770;2022-08-19T08:55:58;101234.94;;;28.66;48.52
3294;BME280;1659;51.470;6.770;2022-08-19T08:58:32;101236.38;;;29.01;47.88
3294;BME280;1659;51.470;6.770;2022-08-19T09:01:09;101236.06;;;29.04;47.69
3294;BME280;1659;51.470;6.770;2022-08-19T09:03:37;101243.91;;;28.88;47.28
3294;BME280;1659;51.470;6.770;2022-08-19T09:06:07;101235.38;;;28.71;47.74
3294;BME280;1659;51.470;6.770;2022-08-19T09:08:40;101230.47;;;28.65;47.88
3294;BME280;1659;51.470;6.770;2022-08-19T09:11:23;101239.34;;;28.46;47.98
3294;BME280;1659;51.470;6.770;2022-08-19T09:14:04;101235.56;;;28.37;47.65
3294;BME280;1659;51.470;6.770;2022-08-19T09:16:32;101239.03;;;28.18;48.01
3294;BME280;1659;51.470;6.770;2022-08-19T09:19:03;101232.13;;;28.14;48.41
3294;BME280;1659;51.470;6.770;2022-08-19T09:21:30;101238.75;;;28.63;47.39
3294;BME280;1659;51.470;6.770;2022-08-19T09:23:57;101225.94;;;29.06;46.29
3294;BME280;1659;51.470;6.770;2022-08-19T09:26:25;101230.31;;;29.28;46.09
3294;BME280;1659;51.470;6.770;2022-08-19T09:28:53;101231.31;;;29.37;45.72
3294;BME280;1659;51.470;6.770;2022-08-19T09:31:23;101227.63;;;29.58;45.15
3294;BME280;1659;51.470;6.770;2022-08-19T09:33:51;101226.22;;;29.63;45.17
3294;BME280;1659;51.470;6.770;2022-08-19T09:36:22;101232.38;;;29.55;45.20
3294;BME280;1659;51.470;6.770;2022-08-19T09:38:50;101222.19;;;29.38;45.78
3294;BME280;1659;51.470;6.770;2022-08-19T09:41:19;101227.84;;;29.15;45.99
3294;BME280;1659;51.470;6.770;2022-08-19T09:43:47;101232.03;;;28.89;46.46
3294;BME280;1659;51.470;6.770;2022-08-19T09:46:19;101220.53;;;29.16;46.13
3294;BME280;1659;51.470;6.770;2022-08-19T09:48:46;101225.72;;;29.19;45.90
3294;BME280;1659;51.470;6.770;2022-08-19T09:51:15;101217.03;;;29.45;45.36
3294;BME280;1659;51.470;6.770;2022-08-19T09:53:44;101220.66;;;29.84;45.02
3294;BME280;1659;51.470;6.770;2022-08-19T09:56:11;101220.53;;;29.96;44.20
3294;BME280;1659;51.470;6.770;2022-08-19T09:58:39;101225.97;;;29.76;44.80
3294;BME280;1659;51.470;6.770;2022-08-19T10:01:07;101235.22;;;29.44;45.13
3294;BME280;1659;51.470;6.770;2022-08-19T10:03:36;101229.19;;;29.31;45.39
3294;BME280;1659;51.470;6.770;2022-08-19T10:06:04;101230.16;;;29.20;45.39
3294;BME280;1659;51.470;6.770;2022-08-19T10:08:35;101228.31;;;29.40;45.32
3294;BME280;1659;51.470;6.770;2022-08-19T10:11:02;101225.97;;;29.76;44.48
3294;BME280;1659;51.470;6.770;2022-08-19T10:13:31;101218.00;;;30.31;43.72
3294;BME280;1659;51.470;6.770;2022-08-19T10:16:04;101225.16;;;30.62;42.83
3294;BME280;1659;51.470;6.770;2022-08-19T10:18:31;101217.56;;;30.56;43.19
3294;BME280;1659;51.470;6.770;2022-08-19T10:21:05;101217.53;;;31.03;42.41
3294;BME280;1659;51.470;6.770;2022-08-19T10:23:35;101216.94;;;31.55;41.72
3294;BME280;1659;51.470;6.770;2022-08-19T10:26:02;101208.34;;;31.68;41.53
3294;BME280;1659;51.470;6.770;2022-08-19T10:28:31;101212.50;;;31.54;41.53
3294;BME280;1659;51.470;6.770;2022-08-19T10:30:58;101207.53;;;31.21;41.87
3294;BME280;1659;51.470;6.770;2022-08-19T10:33:25;101210.69;;;31.17;41.86
3294;BME280;1659;51.470;6.770;2022-08-19T10:35:58;101218.56;;;31.02;41.91
3294;BME280;1659;51.470;6.770;2022-08-19T10:38:27;101209.09;;;30.49;42.26
3294;BME280;1659;51.470;6.770;2022-08-19T10:40:54;101200.53;;;30.24;42.93
3294;BME280;1659;51.470;6.770;2022-08-19T10:43:21;101202.72;;;30.11;42.89
3294;BME280;1659;51.470;6.770;2022-08-19T10:45:52;101201.56;;;29.84;43.23
3294;BME280;1659;51.470;6.770;2022-08-19T10:48:19;101196.13;;;29.55;43.20
3294;BME280;1659;51.470;6.770;2022-08-19T10:50:45;101205.41;;;29.52;43.20
3294;BME280;1659;51.470;6.770;2022-08-19T10:53:31;101214.59;;;29.42;43.39
3294;BME280;1659;51.470;6.770;2022-08-19T10:55:57;101206.69;;;29.38;43.32
3294;BME280;1659;51.470;6.770;2022-08-19T10:58:42;101211.41;;;29.36;42.92
3294;BME280;1659;51.470;6.770;2022-08-19T11:01:08;101202.00;;;29.60;42.60
3294;BME280;1659;51.470;6.770;2022-08-19T11:03:35;101196.41;;;30.01;41.96
3294;BME280;1659;51.470;6.770;2022-08-19T11:06:04;101202.28;;;29.86;41.83
3294;BME280;1659;51.470;6.770;2022-08-19T11:08:33;101201.72;;;29.83;41.74
3294;BME280;1659;51.470;6.770;2022-08-19T11:11:01;101185.75;;;30.37;41.23
3294;BME280;1659;51.470;6.770;2022-08-19T11:13:29;101189.81;;;30.98;40.11
3294;BME280;1659;51.470;6.770;2022-08-19T11:15:58;101189.06;;;31.69;39.24
3294;BME280;1659;51.470;6.770;2022-08-19T11:18:24;101189.41;;;32.28;38.33
3294;BME280;1659;51.470;6.770;2022-08-19T11:20:51;101196.00;;;32.70;37.83
3294;BME280;1659;51.470;6.770;2022-08-19T11:23:18;101198.53;;;33.06;37.41
3294;BME280;1659;51.470;6.770;2022-08-19T11:25:46;101187.84;;;33.21;36.95
3294;BME280;1659;51.470;6.770;2022-08-19T11:28:13;101186.84;;;33.38;36.76
3294;BME280;1659;51.470;6.770;2022-08-19T11:30:40;101186.88;;;33.63;36.19
3294;BME280;1659;51.470;6.770;2022-08-19T11:33:06;101181.75;;;33.84;35.43
3294;BME280;1659;51.470;6.770;2022-08-19T11:35:39;101181.41;;;33.79;35.38
3294;BME280;1659;51.470;6.770;2022-08-19T11:38:06;101179.53;;;34.04;34.97
3294;BME280;1659;51.470;6.770;2022-08-19T11:40:33;101186.41;;;33.84;34.82
3294;BME280;1659;51.470;6.770;2022-08-19T11:43:00;101182.06;;;33.48;35.04
3294;BME280;1659;51.470;6.770;2022-08-19T11:45:28;101183.13;;;33.05;35.77
3294;BME280;1659;51.470;6.770;2022-08-19T11:47:57;101189.59;;;32.96;35.97
3294;BME280;1659;51.470;6.770;2022-08-19T11:50:24;101178.31;;;32.99;35.71
3294;BME280;1659;51.470;6.770;2022-08-19T11:52:53;101182.06;;;32.89;35.54
3294;BME280;1659;51.470;6.770;2022-08-19T11:55:20;101177.06;;;32.50;35.92
3294;BME280;1659;51.470;6.770;2022-08-19T11:57:47;101180.72;;;32.33;36.10
3294;BME280;1659;51.470;6.770;2022-08-19T12:00:16;101185.22;;;32.68;35.49
3294;BME280;1659;51.470;6.770;2022-08-19T12:02:42;101181.56;;;32.94;34.97
3294;BME280;1659;51.470;6.770;2022-08-19T12:05:09;101170.91;;;33.34;34.48
3294;BME280;1659;51.470;6.770;2022-08-19T12:07:36;101167.03;;;33.77;33.81
3294;BME280;1659;51.470;6.770;2022-08-19T12:10:03;101169.75;;;34.27;33.00
3294;BME280;1659;51.470;6.770;2022-08-19T12:12:29;101167.06;;;34.58;32.64
3294;BME280;1659;51.470;6.770;2022-08-19T12:14:56;101161.22;;;34.69;32.20
3294;BME280;1659;51.470;6.770;2022-08-19T12:17:25;101172.50;;;34.10;33.08
3294;BME280;1659;51.470;6.770;2022-08-19T12:19:52;101171.63;;;33.52;33.62
3294;BME280;1659;51.470;6.770;2022-08-19T12:22:19;101157.22;;;33.42;33.78
3294;BME280;1659;51.470;6.770;2022-08-19T12:24:46;101158.63;;;33.79;33.09
3294;BME280;1659;51.470;6.770;2022-08-19T12:27:13;101162.06;;;33.97;32.57
3294;BME280;1659;51.470;6.770;2022-08-19T12:29:40;101153.63;;;34.15;32.64
3294;BME280;1659;51.470;6.770;2022-08-19T12:32:06;101153.16;;;34.20;32.16
3294;BME280;1659;51.470;6.770;2022-08-19T12:34:35;101157.25;;;34.08;32.46
3294;BME280;1659;51.470;6.770;2022-08-19T12:37:04;101154.84;;;34.29;32.11
3294;BME280;1659;51.470;6.770;2022-08-19T12:39:34;101150.00;;;34.39;31.53
3294;BME280;1659;51.470;6.770;2022-08-19T12:42:01;101146.59;;;34.29;32.10
3294;BME280;1659;51.470;6.770;2022-08-19T12:44:28;101146.25;;;34.80;31.05
3294;BME280;1659;51.470;6.770;2022-08-19T12:46:55;101143.69;;;35.10;30.75
3294;BME280;1659;51.470;6.770;2022-08-19T12:49:22;101144.31;;;35.51;30.31
3294;BME280;1659;51.470;6.770;2022-08-19T12:51:51;101141.19;;;35.78;29.96
3294;BME280;1659;51.470;6.770;2022-08-19T12:54:18;101146.41;;;35.64;30.03
3294;BME280;1659;51.470;6.770;2022-08-19T12:56:45;101153.34;;;35.60;29.77
3294;BME280;1659;51.470;6.770;2022-08-19T12:59:11;101142.56;;;35.50;29.79
3294;BME280;1659;51.470;6.770;2022-08-19T13:01:39;101146.78;;;35.61;29.27
3294;BME280;1659;51.470;6.770;2022-08-19T13:04:06;101140.16;;;35.32;29.81
3294;BME280;1659;51.470;6.770;2022-08-19T13:06:33;101137.41;;;35.32;29.50
3294;BME280;1659;51.470;6.770;2022-08-19T13:09:02;101134.56;;;35.64;29.14
3294;BME280;1659;51.470;6.770;2022-08-19T13:11:29;101134.31;;;35.73;29.52
3294;BME280;1659;51.470;6.770;2022-08-19T13:13:58;101137.28;;;35.72;28.99
3294;BME280;1659;51.470;6.770;2022-08-19T13:16:25;101134.84;;;35.92;29.27